Time;durP1;ratioP1;P1;durP2;ratioP2;P2;SDS_P1;SDS_P2;PMS_P1;PMS_P2;Temp;Humidity;BMP_temperature;BMP_pressure;BME280_temperature;BME280_humidity;BME280_pressure;Samples;Min_cycle;Max_cycle;Signal;HPM_P1;HPM_P2
2023/07/12 00:01:24;;;;;;;3.90;2.45;;;;;;;;;;5012942;28;20058;-91
2023/07/12 00:03:56;;;;;;;4.60;2.97;;;;;;;;;;5011250;28;20087;-91
2023/07/12 00:06:29;;;;;;;4.32;3.40;;;;;;;;;;4995187;28;20435;-90
2023/07/12 00:08:58;;;;;;;4.15;2.85;;;;;;;;;;5009701;28;20455;-90
2023/07/12 00:11:27;;;;;;;3.50;3.17;;;;;;;;;;4993511;28;20065;-91
2023/07/12 00:13:57;;;;;;;4.38;3.17;;;;;;;;;;5012197;28;20056;-91
2023/07/12 00:16:26;;;;;;;3.13;2.78;;;;;;;;;;5011681;28;20061;-91
2023/07/12 00:18:55;;;;;;;3.25;2.60;;;;;;;;;;4993298;28;20052;-91
2023/07/12 00:21:27;;;;;;;6.00;3.33;;;;;;;;;;5012150;28;20045;-91
2023/07/12 00:24:01;;;;;;;4.82;2.90;;;;;;;;;;5009709;28;20526;-91
2023/07/12 00:26:30;;;;;;;4.22;3.00;;;;;;;;;;5016888;28;20061;-90
2023/07/12 00:28:59;;;;;;;3.00;2.50;;;;;;;;;;5012425;28;20047;-91
2023/07/12 00:31:31;;;;;;;3.47;2.88;;;;;;;;;;4991820;28;20057;-90
2023/07/12 00:33:58;;;;;;;2.88;2.63;;;;;;;;;;5011103;28;20054;-91
2023/07/12 00:36:28;;;;;;;3.13;2.67;;;;;;;;;;5011143;28;20062;-90
2023/07/12 00:38:55;;;;;;;3.33;2.70;;;;;;;;;;4988318;28;20526;-91
2023/07/12 00:41:31;;;;;;;3.10;2.80;;;;;;;;;;5017088;28;20065;-92
2023/07/12 00:44:02;;;;;;;3.17;2.75;;;;;;;;;;5011008;28;20050;-91
2023/07/12 00:46:39;;;;;;;4.05;2.88;;;;;;;;;;5011022;28;20057;-91
2023/07/12 00:49:06;;;;;;;4.68;2.80;;;;;;;;;;5012172;28;20511;-91
2023/07/12 00:51:40;;;;;;;3.83;2.75;;;;;;;;;;4994416;28;20057;-92
2023/07/12 00:54:12;;;;;;;4.05;2.97;;;;;;;;;;4994977;28;20046;-91
2023/07/12 00:56:44;;;;;;;4.97;3.40;;;;;;;;;;5031030;28;20049;-92
2023/07/12 00:59:15;;;;;;;7.03;3.70;;;;;;;;;;5000510;28;20400;-91
2023/07/12 01:01:43;;;;;;;4.97;3.33;;;;;;;;;;5011999;28;20049;-91
2023/07/12 01:04:12;;;;;;;5.63;3.55;;;;;;;;;;4994725;28;20716;-91
2023/07/12 01:06:42;;;;;;;5.30;3.72;;;;;;;;;;5010341;28;20049;-91
2023/07/12 01:09:14;;;;;;;4.30;3.40;;;;;;;;;;5011739;28;20046;-91
2023/07/12 01:11:46;;;;;;;3.28;2.80;;;;;;;;;;5011909;28;20050;-90
2023/07/12 01:14:15;;;;;;;3.90;3.50;;;;;;;;;;5011439;28;20060;-91
2023/07/12 01:16:44;;;;;;;2.95;2.72;;;;;;;;;;4990046;28;21375;-91
2023/07/12 01:19:14;;;;;;;3.63;3.30;;;;;;;;;;4996110;28;20046;-91
2023/07/12 01:21:44;;;;;;;5.45;2.67;;;;;;;;;;5013112;28;20053;-91
2023/07/12 01:24:12;;;;;;;4.75;3.03;;;;;;;;;;5011737;28;20065;-91
2023/07/12 01:26:41;;;;;;;4.30;2.70;;;;;;;;;;4997278;28;20054;-91
2023/07/12 01:29:11;;;;;;;5.13;3.08;;;;;;;;;;5010071;28;20056;-91
2023/07/12 01:31:39;;;;;;;2.97;2.35;;;;;;;;;;5012925;28;20534;-92
2023/07/12 01:34:08;;;;;;;3.97;2.83;;;;;;;;;;5012306;28;20038;-92
2023/07/12 01:36:38;;;;;;;5.47;3.40;;;;;;;;;;4997887;28;20038;-92
2023/07/12 01:39:07;;;;;;;5.60;3.08;;;;;;;;;;4998349;28;20573;-91
2023/07/12 01:41:35;;;;;;;6.80;3.63;;;;;;;;;;5015252;28;20049;-91
2023/07/12 01:44:07;;;;;;;3.95;3.55;;;;;;;;;;5001162;28;20054;-90
2023/07/12 01:46:37;;;;;;;3.95;3.00;;;;;;;;;;5003133;28;20038;-88
2023/07/12 01:49:05;;;;;;;7.22;3.92;;;;;;;;;;5019661;28;20037;-89
2023/07/12 01:51:33;;;;;;;5.35;3.88;;;;;;;;;;5020026;28;20064;-89
2023/07/12 01:54:03;;;;;;;5.00;2.80;;;;;;;;;;5012881;28;20049;-92
2023/07/12 01:56:31;;;;;;;4.35;3.08;;;;;;;;;;5010675;28;20117;-90
2023/07/12 01:59:01;;;;;;;6.50;3.90;;;;;;;;;;5009730;28;20046;-91
2023/07/12 02:01:31;;;;;;;4.53;3.40;;;;;;;;;;4991837;28;20065;-91
2023/07/12 02:03:58;;;;;;;4.68;4.15;;;;;;;;;;4992759;28;20061;-91
2023/07/12 02:06:26;;;;;;;4.00;3.08;;;;;;;;;;5010284;28;20046;-91
2023/07/12 02:08:53;;;;;;;4.72;3.25;;;;;;;;;;5010470;28;20038;-91
2023/07/12 02:11:21;;;;;;;6.60;3.53;;;;;;;;;;4993572;28;20156;-91
2023/07/12 02:13:50;;;;;;;5.18;3.50;;;;;;;;;;4993435;28;20053;-91
2023/07/12 02:16:20;;;;;;;4.80;3.38;;;;;;;;;;4989637;28;20076;-91
2023/07/12 02:18:48;;;;;;;3.58;3.17;;;;;;;;;;4993086;28;20057;-91
2023/07/12 02:21:15;;;;;;;9.95;4.18;;;;;;;;;;5010960;28;20543;-90
2023/07/12 02:23:42;;;;;;;7.22;4.10;;;;;;;;;;4993492;28;20104;-93
2023/07/12 02:26:12;;;;;;;4.35;3.08;;;;;;;;;;5009863;28;20701;-91
2023/07/12 02:28:39;;;;;;;10.55;4.03;;;;;;;;;;5013520;28;20058;-92
2023/07/12 02:31:21;;;;;;;6.03;4.18;;;;;;;;;;5009773;28;20058;-90
2023/07/12 02:33:51;;;;;;;7.75;4.00;;;;;;;;;;4994594;28;20179;-90
2023/07/12 02:36:21;;;;;;;4.72;3.75;;;;;;;;;;5003662;28;20418;-90
2023/07/12 02:38:49;;;;;;;10.38;3.53;;;;;;;;;;5009681;28;20049;-91
2023/07/12 02:41:16;;;;;;;16.92;6.60;;;;;;;;;;5007979;28;20077;-90
2023/07/12 02:43:44;;;;;;;8.02;3.67;;;;;;;;;;5009524;28;20046;-90
2023/07/12 02:46:11;;;;;;;6.07;4.05;;;;;;;;;;5009811;28;20541;-92
2023/07/12 02:48:42;;;;;;;6.40;3.80;;;;;;;;;;5004708;28;20046;-92
2023/07/12 02:51:12;;;;;;;6.28;3.97;;;;;;;;;;4993902;28;20069;-91
2023/07/12 02:53:42;;;;;;;8.40;3.72;;;;;;;;;;4992309;28;20076;-89
2023/07/12 02:56:12;;;;;;;5.78;4.13;;;;;;;;;;5009327;28;20046;-91
2023/07/12 02:58:39;;;;;;;5.93;4.80;;;;;;;;;;4991020;28;20061;-91
2023/07/12 03:01:07;;;;;;;7.95;4.70;;;;;;;;;;5019581;28;20053;-90
2023/07/12 03:03:34;;;;;;;6.80;4.03;;;;;;;;;;4992903;28;20057;-92
2023/07/12 03:06:07;;;;;;;7.35;4.32;;;;;;;;;;4998598;28;20034;-92
2023/07/12 03:08:34;;;;;;;;;;;;;;;;;;5009318;28;20115;-91
2023/07/12 03:11:06;;;;;;;5.57;3.75;;;;;;;;;;4993858;28;19996;-91
2023/07/12 03:13:34;;;;;;;7.28;3.30;;;;;;;;;;5009168;28;20050;-90
2023/07/12 03:16:05;;;;;;;5.32;3.92;;;;;;;;;;4994227;28;20042;-91
2023/07/12 03:18:35;;;;;;;8.15;3.45;;;;;;;;;;5008674;28;20061;-92
2023/07/12 03:21:04;;;;;;;6.30;3.70;;;;;;;;;;5011617;28;20114;-91
2023/07/12 03:23:34;;;;;;;9.07;3.83;;;;;;;;;;4978744;28;20538;-91
2023/07/12 03:26:01;;;;;;;6.72;4.22;;;;;;;;;;5009590;28;20522;-92
2023/07/12 03:28:29;;;;;;;5.72;3.58;;;;;;;;;;5011393;28;20054;-91
2023/07/12 03:31:00;;;;;;;6.75;3.95;;;;;;;;;;5009431;28;20064;-90
2023/07/12 03:33:28;;;;;;;5.60;3.95;;;;;;;;;;5014703;28;20073;-93
2023/07/12 03:35:55;;;;;;;11.82;4.10;;;;;;;;;;4998222;28;20061;-93
2023/07/12 03:38:25;;;;;;;5.75;3.80;;;;;;;;;;5013215;28;20076;-93
2023/07/12 03:40:54;;;;;;;10.43;4.15;;;;;;;;;;5012273;28;20048;-92
2023/07/12 03:43:22;;;;;;;4.93;3.75;;;;;;;;;;4982996;28;20050;-93
2023/07/12 03:45:49;;;;;;;8.75;4.80;;;;;;;;;;4998262;28;20050;-93
2023/07/12 03:48:17;;;;;;;7.35;4.18;;;;;;;;;;5015685;28;20053;-93
2023/07/12 03:50:46;;;;;;;17.08;5.80;;;;;;;;;;4999542;28;20419;-93
2023/07/12 03:53:14;;;;;;;8.70;3.90;;;;;;;;;;5015939;28;20050;-93
2023/07/12 03:55:43;;;;;;;6.30;4.05;;;;;;;;;;5012565;28;20066;-93
2023/07/12 03:58:15;;;;;;;5.25;3.72;;;;;;;;;;4998495;28;20500;-92
2023/07/12 04:00:46;;;;;;;13.80;4.00;;;;;;;;;;5011474;28;20046;-93
2023/07/12 04:03:13;;;;;;;6.35;4.20;;;;;;;;;;5013951;28;20050;-91
2023/07/12 04:05:42;;;;;;;6.93;4.25;;;;;;;;;;5015666;28;20057;-90
2023/07/12 04:08:11;;;;;;;6.28;4.50;;;;;;;;;;4996621;28;20057;-91
2023/07/12 04:10:39;;;;;;;7.15;4.65;;;;;;;;;;5016614;28;20558;-92
2023/07/12 04:13:09;;;;;;;10.27;4.20;;;;;;;;;;5021647;28;20061;-91
2023/07/12 04:15:38;;;;;;;5.00;4.10;;;;;;;;;;5023079;28;20058;-90
2023/07/12 04:18:05;;;;;;;7.15;4.28;;;;;;;;;;4999975;28;20049;-92
2023/07/12 04:20:37;;;;;;;12.00;4.20;;;;;;;;;;5010227;28;20058;-89
2023/07/12 04:23:07;;;;;;;12.27;4.38;;;;;;;;;;4990657;28;20041;-92
2023/07/12 04:25:35;;;;;;;10.88;4.15;;;;;;;;;;4996639;28;20061;-93
2023/07/12 04:28:02;;;;;;;9.20;5.25;;;;;;;;;;4996180;28;20057;-92
2023/07/12 04:30:32;;;;;;;5.85;4.20;;;;;;;;;;4998434;28;20064;-92
2023/07/12 04:33:05;;;;;;;8.40;4.45;;;;;;;;;;5012610;28;20664;-92
2023/07/12 04:35:38;;;;;;;8.07;4.32;;;;;;;;;;4990150;28;20061;-92
2023/07/12 04:38:05;;;;;;;11.20;5.18;;;;;;;;;;5014114;28;20042;-93
2023/07/12 04:40:33;;;;;;;10.15;4.85;;;;;;;;;;5000550;28;20053;-92
2023/07/12 04:43:04;;;;;;;8.70;4.70;;;;;;;;;;5015483;28;20056;-91
2023/07/12 04:45:31;;;;;;;7.10;4.75;;;;;;;;;;5010789;28;20054;-93
2023/07/12 04:48:01;;;;;;;7.47;5.30;;;;;;;;;;5016634;28;20033;-91
2023/07/12 04:50:35;;;;;;;7.43;4.30;;;;;;;;;;4997353;28;20072;-92
2023/07/12 04:53:04;;;;;;;12.45;4.97;;;;;;;;;;5018052;28;20050;-92
2023/07/12 04:55:31;;;;;;;9.18;4.45;;;;;;;;;;5000533;28;20054;-92
2023/07/12 04:57:59;;;;;;;10.48;4.82;;;;;;;;;;4996530;28;20049;-92
2023/07/12 05:00:27;;;;;;;8.30;4.40;;;;;;;;;;5013396;28;20054;-92
2023/07/12 05:02:59;;;;;;;8.07;4.82;;;;;;;;;;4996087;28;20056;-91
2023/07/12 05:05:29;;;;;;;12.45;4.20;;;;;;;;;;5017066;28;20052;-93
2023/07/12 05:08:00;;;;;;;9.25;4.50;;;;;;;;;;5018420;28;20042;-94
2023/07/12 05:10:30;;;;;;;7.47;5.13;;;;;;;;;;5003541;28;20061;-91
2023/07/12 05:12:57;;;;;;;9.43;4.57;;;;;;;;;;5000790;28;20045;-93
2023/07/12 05:15:24;;;;;;;7.15;4.82;;;;;;;;;;5015462;28;20054;-92
2023/07/12 05:17:54;;;;;;;6.28;4.60;;;;;;;;;;5016321;28;20046;-93
2023/07/12 05:20:32;;;;;;;9.85;4.45;;;;;;;;;;5034356;28;20434;-93
2023/07/12 05:23:01;;;;;;;8.02;4.20;;;;;;;;;;4997733;28;20050;-93
2023/07/12 05:25:28;;;;;;;7.95;4.97;;;;;;;;;;5000349;28;20050;-91
2023/07/12 05:27:55;;;;;;;9.63;4.38;;;;;;;;;;4994441;28;20054;-92
2023/07/12 05:30:23;;;;;;;7.45;5.07;;;;;;;;;;4999276;28;20069;-92
2023/07/12 05:32:50;;;;;;;8.77;4.47;;;;;;;;;;4999859;28;20058;-92
2023/07/12 05:35:17;;;;;;;6.43;4.50;;;;;;;;;;5018473;28;20050;-92
2023/07/12 05:37:45;;;;;;;9.70;4.70;;;;;;;;;;5016524;28;20054;-91
2023/07/12 05:40:15;;;;;;;5.35;4.30;;;;;;;;;;5017689;28;20049;-92
2023/07/12 05:42:44;;;;;;;7.25;5.03;;;;;;;;;;5013880;28;20053;-93
2023/07/12 05:45:14;;;;;;;9.07;4.70;;;;;;;;;;5017266;28;20054;-93
2023/07/12 05:47:45;;;;;;;7.10;4.55;;;;;;;;;;4998380;28;20050;-92
2023/07/12 05:50:14;;;;;;;7.72;4.55;;;;;;;;;;5020859;28;20053;-93
2023/07/12 05:52:51;;;;;;;5.32;4.53;;;;;;;;;;5001228;28;20061;-92
2023/07/12 05:55:21;;;;;;;7.35;4.60;;;;;;;;;;5019537;28;20058;-93
2023/07/12 05:57:49;;;;;;;7.28;4.85;;;;;;;;;;5016675;28;20061;-91
2023/07/12 06:00:19;;;;;;;10.40;4.43;;;;;;;;;;5013290;28;20503;-92
2023/07/12 06:02:50;;;;;;;7.93;4.57;;;;;;;;;;5016682;28;20152;-92
2023/07/12 06:05:18;;;;;;;10.00;5.30;;;;;;;;;;5014222;28;20061;-92
2023/07/12 06:07:50;;;;;;;10.75;4.65;;;;;;;;;;5011380;28;20053;-92
2023/07/12 06:10:24;;;;;;;7.30;4.53;;;;;;;;;;5011842;28;20064;-93
2023/07/12 06:12:51;;;;;;;7.75;5.15;;;;;;;;;;5016244;28;20050;-93
2023/07/12 06:15:22;;;;;;;7.50;4.55;;;;;;;;;;5002082;28;20069;-93
2023/07/12 06:17:52;;;;;;;7.47;5.05;;;;;;;;;;5012370;28;20038;-92
2023/07/12 06:20:19;;;;;;;6.70;4.72;;;;;;;;;;5013043;28;20064;-93
2023/07/12 06:22:49;;;;;;;8.15;5.20;;;;;;;;;;5016340;28;20060;-93
2023/07/12 06:25:16;;;;;;;7.03;4.50;;;;;;;;;;5029158;28;20515;-92
2023/07/12 06:27:45;;;;;;;4.32;3.70;;;;;;;;;;5016427;28;20129;-93
2023/07/12 06:30:13;;;;;;;6.22;4.57;;;;;;;;;;4997891;28;20057;-92
2023/07/12 06:32:43;;;;;;;6.35;4.47;;;;;;;;;;5011430;28;20053;-90
2023/07/12 06:35:13;;;;;;;12.20;5.13;;;;;;;;;;5016557;28;20084;-93
2023/07/12 06:37:42;;;;;;;7.53;3.90;;;;;;;;;;5001481;28;20046;-94
2023/07/12 06:40:10;;;;;;;5.07;4.40;;;;;;;;;;5020849;28;20058;-92
2023/07/12 06:42:38;;;;;;;8.88;5.97;;;;;;;;;;5019278;28;20050;-93
2023/07/12 06:45:08;;;;;;;9.80;4.18;;;;;;;;;;5000321;28;20058;-92
2023/07/12 06:47:37;;;;;;;5.40;4.25;;;;;;;;;;5038148;28;20052;-93
2023/07/12 06:50:08;;;;;;;5.57;4.45;;;;;;;;;;5017885;28;20046;-94
2023/07/12 06:52:37;;;;;;;6.45;4.45;;;;;;;;;;5023132;28;20418;-93
2023/07/12 06:55:05;;;;;;;5.95;4.50;;;;;;;;;;5021506;28;20045;-92
2023/07/12 06:57:34;;;;;;;5.68;3.75;;;;;;;;;;5019013;28;20041;-92
2023/07/12 07:00:12;;;;;;;6.82;4.82;;;;;;;;;;5008295;28;20054;-94
2023/07/12 07:02:40;;;;;;;5.05;4.55;;;;;;;;;;5028461;28;20054;-93
2023/07/12 07:05:09;;;;;;;6.30;4.43;;;;;;;;;;5019149;28;20050;-93
2023/07/12 07:07:38;;;;;;;7.30;4.88;;;;;;;;;;5027978;28;20042;-93
2023/07/12 07:10:09;;;;;;;4.75;3.65;;;;;;;;;;5030898;28;20029;-92
2023/07/12 07:12:36;;;;;;;15.75;5.93;;;;;;;;;;5030303;28;20019;-92
2023/07/12 07:15:05;;;;;;;5.20;4.70;;;;;;;;;;5028878;28;20050;-94
2023/07/12 07:17:33;;;;;;;8.35;4.55;;;;;;;;;;5026618;28;20050;-91
2023/07/12 07:20:01;;;;;;;6.88;4.53;;;;;;;;;;5016060;28;20053;-92
2023/07/12 07:22:28;;;;;;;5.68;4.28;;;;;;;;;;5033099;28;20052;-93
2023/07/12 07:24:55;;;;;;;9.00;4.78;;;;;;;;;;5031486;28;20053;-92
2023/07/12 07:27:23;;;;;;;8.25;4.40;;;;;;;;;;5032100;28;20058;-92
2023/07/12 07:29:53;;;;;;;15.52;5.18;;;;;;;;;;5032929;28;20044;-92
2023/07/12 07:32:20;;;;;;;9.57;4.72;;;;;;;;;;5032167;28;20076;-94
2023/07/12 07:34:49;;;;;;;6.47;4.70;;;;;;;;;;5028720;28;20061;-93
2023/07/12 07:37:16;;;;;;;11.63;4.47;;;;;;;;;;5052862;28;20060;-94
2023/07/12 07:39:44;;;;;;;6.03;4.40;;;;;;;;;;5037713;28;20022;-92
2023/07/12 07:42:18;;;;;;;6.85;3.90;;;;;;;;;;5030876;28;20034;-93
2023/07/12 07:44:46;;;;;;;5.38;4.43;;;;;;;;;;5046359;28;20058;-91
2023/07/12 07:47:14;;;;;;;7.75;4.53;;;;;;;;;;5038915;28;20042;-92
2023/07/12 07:49:41;;;;;;;7.88;5.15;;;;;;;;;;5037436;28;20046;-93
2023/07/12 07:52:10;;;;;;;6.85;5.93;;;;;;;;;;5038018;28;20052;-93
2023/07/12 07:54:39;;;;;;;7.00;5.13;;;;;;;;;;5039438;28;20034;-94
2023/07/12 07:57:07;;;;;;;8.00;4.95;;;;;;;;;;5039735;28;20048;-92
2023/07/12 07:59:35;;;;;;;8.10;5.28;;;;;;;;;;5036916;28;20042;-93
2023/07/12 08:02:03;;;;;;;6.20;4.97;;;;;;;;;;5037165;28;20047;-92
2023/07/12 08:04:34;;;;;;;6.85;4.28;;;;;;;;;;5019195;28;20037;-92
2023/07/12 08:07:05;;;;;;;5.00;4.53;;;;;;;;;;5038378;28;20034;-92
2023/07/12 08:09:36;;;;;;;6.07;4.85;;;;;;;;;;5036041;28;20044;-94
2023/07/12 08:12:05;;;;;;;4.95;4.55;;;;;;;;;;5038133;28;20026;-91
2023/07/12 08:14:34;;;;;;;5.50;4.95;;;;;;;;;;5034087;28;20037;-92
2023/07/12 08:17:05;;;;;;;5.07;4.45;;;;;;;;;;5038566;28;20037;-93
2023/07/12 08:19:34;;;;;;;7.05;4.90;;;;;;;;;;5030893;28;20056;-92
2023/07/12 08:22:02;;;;;;;8.70;3.67;;;;;;;;;;5033867;28;20053;-92
2023/07/12 08:24:32;;;;;;;4.55;4.15;;;;;;;;;;5032249;28;20049;-93
2023/07/12 08:27:01;;;;;;;7.45;3.92;;;;;;;;;;5033024;28;20036;-92
2023/07/12 08:29:28;;;;;;;5.05;4.40;;;;;;;;;;5036936;28;20041;-92
2023/07/12 08:31:56;;;;;;;8.98;4.53;;;;;;;;;;5037916;28;20026;-92
2023/07/12 08:34:26;;;;;;;4.18;3.75;;;;;;;;;;5018824;28;20034;-92
2023/07/12 08:36:53;;;;;;;5.38;4.30;;;;;;;;;;5037060;28;20040;-92
2023/07/12 08:39:21;;;;;;;12.48;4.15;;;;;;;;;;5033432;28;20054;-94
2023/07/12 08:41:51;;;;;;;6.75;4.13;;;;;;;;;;5033942;28;20044;-91
2023/07/12 08:44:20;;;;;;;8.15;5.00;;;;;;;;;;5021684;28;20049;-92
2023/07/12 08:46:51;;;;;;;8.05;4.35;;;;;;;;;;5042991;28;20530;-93
2023/07/12 08:49:19;;;;;;;5.88;4.43;;;;;;;;;;5022725;28;20064;-94
2023/07/12 08:51:47;;;;;;;5.28;4.13;;;;;;;;;;5021316;28;20053;-92
2023/07/12 08:54:25;;;;;;;6.80;3.57;;;;;;;;;;5035778;28;20045;-93
2023/07/12 08:56:59;;;;;;;5.47;4.30;;;;;;;;;;5018351;28;20065;-94
2023/07/12 08:59:30;;;;;;;5.72;4.28;;;;;;;;;;5017759;28;20042;-93
2023/07/12 09:02:06;;;;;;;4.65;3.15;;;;;;;;;;5001141;28;20065;-94
2023/07/12 09:04:34;;;;;;;3.88;3.40;;;;;;;;;;5016620;28;20425;-94
2023/07/12 09:07:05;;;;;;;6.10;3.80;;;;;;;;;;5001988;28;20042;-93
2023/07/12 09:09:36;;;;;;;4.38;3.20;;;;;;;;;;5018887;28;20053;-94
2023/07/12 09:12:07;;;;;;;4.53;3.17;;;;;;;;;;5018109;28;20050;-94
2023/07/12 09:14:37;;;;;;;3.95;3.20;;;;;;;;;;5012124;28;20505;-93
2023/07/12 09:17:20;;;;;;;5.05;3.28;;;;;;;;;;5015807;28;20053;-93
2023/07/12 09:19:47;;;;;;;;;;;;;;;;;;4997295;28;20053;-94
2023/07/12 09:22:16;;;;;;;4.05;2.72;;;;;;;;;;5015496;28;20051;-94
2023/07/12 09:24:51;;;;;;;3.92;3.03;;;;;;;;;;4995052;28;20066;-93
2023/07/12 09:27:20;;;;;;;5.47;3.33;;;;;;;;;;5006386;28;20492;-93
2023/07/12 09:30:00;;;;;;;3.53;3.22;;;;;;;;;;5014089;28;20049;-93
2023/07/12 09:32:32;;;;;;;3.17;2.88;;;;;;;;;;5013976;28;20435;-94
2023/07/12 09:34:59;;;;;;;;;;;;;;;;;;5017144;28;20053;-92
2023/07/12 09:37:27;;;;;;;5.13;2.80;;;;;;;;;;5018565;28;19905;-92
2023/07/12 09:39:55;;;;;;;4.10;2.42;;;;;;;;;;5034784;28;20034;-93
2023/07/12 09:42:23;;;;;;;4.35;3.33;;;;;;;;;;4998875;28;20530;-93
2023/07/12 09:44:51;;;;;;;4.18;3.20;;;;;;;;;;5016306;28;20058;-93
2023/07/12 09:47:34;;;;;;;4.03;2.47;;;;;;;;;;5012624;28;20053;-93
2023/07/12 09:50:08;;;;;;;2.88;2.53;;;;;;;;;;5011968;28;20053;-94
2023/07/12 09:52:52;;;;;;;3.10;2.80;;;;;;;;;;5011920;28;20050;-93
2023/07/12 09:55:25;;;;;;;5.03;3.00;;;;;;;;;;4994690;28;20054;-94
2023/07/12 09:57:59;;;;;;;7.43;3.17;;;;;;;;;;5010247;28;20435;-93
2023/07/12 10:00:32;;;;;;;6.63;3.15;;;;;;;;;;4995257;28;20054;-93
2023/07/12 10:03:13;;;;;;;4.50;3.42;;;;;;;;;;4996028;28;20529;-93
2023/07/12 10:05:43;;;;;;;3.80;2.92;;;;;;;;;;5007425;28;20057;-93
2023/07/12 10:08:13;;;;;;;;;;;;;;;;;;5011184;28;20081;-93
2023/07/12 10:10:46;;;;;;;3.55;2.90;;;;;;;;;;5028975;28;19921;-94
2023/07/12 10:13:24;;;;;;;4.30;2.83;;;;;;;;;;5028161;28;20058;-94
2023/07/12 10:15:52;;;;;;;5.20;3.03;;;;;;;;;;5000916;28;20065;-92
2023/07/12 10:18:24;;;;;;;5.13;3.03;;;;;;;;;;4993128;28;20046;-93
2023/07/12 10:20:51;;;;;;;;;;;;;;;;;;5012311;28;20045;-94
2023/07/12 10:23:22;;;;;;;5.00;3.38;;;;;;;;;;5011360;28;19925;-94
2023/07/12 10:25:55;;;;;;;3.83;3.47;;;;;;;;;;5008730;28;20050;-93
2023/07/12 10:28:27;;;;;;;6.22;3.67;;;;;;;;;;5011168;28;20050;-93
2023/07/12 10:30:56;;;;;;;4.55;2.75;;;;;;;;;;5015451;28;20045;-94
2023/07/12 10:33:30;;;;;;;5.80;3.58;;;;;;;;;;5014856;28;20435;-93
2023/07/12 10:36:00;;;;;;;3.75;3.38;;;;;;;;;;4995203;28;20470;-93
2023/07/12 10:38:30;;;;;;;3.72;3.05;;;;;;;;;;5011778;28;20072;-93
2023/07/12 10:41:03;;;;;;;3.58;3.28;;;;;;;;;;5012222;28;20046;-93
2023/07/12 10:43:33;;;;;;;5.40;3.08;;;;;;;;;;4997500;28;20054;-93
2023/07/12 10:46:03;;;;;;;4.32;2.90;;;;;;;;;;5010397;28;20050;-93
2023/07/12 10:48:32;;;;;;;6.07;2.92;;;;;;;;;;5012691;28;20053;-93
2023/07/12 10:51:25;;;;;;;4.80;2.63;;;;;;;;;;5011094;28;20054;-94
2023/07/12 10:53:54;;;;;;;5.47;3.05;;;;;;;;;;5013151;28;20120;-93
2023/07/12 10:56:26;;;;;;;4.35;3.10;;;;;;;;;;5011541;28;20050;-94
2023/07/12 10:58:57;;;;;;;3.30;2.88;;;;;;;;;;5012486;28;20042;-94
2023/07/12 11:01:49;;;;;;;4.38;2.58;;;;;;;;;;5008500;28;20045;-94
2023/07/12 11:04:25;;;;;;;4.68;2.90;;;;;;;;;;4996230;28;20050;-94
2023/07/12 11:06:59;;;;;;;4.15;2.78;;;;;;;;;;5011520;28;20057;-94
2023/07/12 11:10:02;;;;;;;3.28;2.20;;;;;;;;;;4983392;28;20042;-93
2023/07/12 11:12:37;;;;;;;6.65;2.58;;;;;;;;;;5010123;28;20050;-95
2023/07/12 11:15:18;;;;;;;3.78;2.50;;;;;;;;;;4999377;28;20076;-93
2023/07/12 11:17:52;;;;;;;4.22;2.65;;;;;;;;;;5028124;28;20056;-93
2023/07/12 11:20:23;;;;;;;6.18;3.20;;;;;;;;;;5032916;28;20045;-94
2023/07/12 11:22:57;;;;;;;3.58;2.53;;;;;;;;;;5030077;28;20056;-93
2023/07/12 11:25:37;;;;;;;3.08;2.20;;;;;;;;;;5027312;28;20049;-93
2023/07/12 11:28:05;;;;;;;5.28;2.90;;;;;;;;;;5002461;28;20058;-93
2023/07/12 12:17:29;;;;;;;3.78;2.25;;;;;;;;;;5012489;28;20046;-94
2023/07/12 12:20:11;;;;;;;5.40;2.17;;;;;;;;;;5017454;28;20053;-94
2023/07/12 12:22:40;;;;;;;4.25;2.20;;;;;;;;;;4999047;28;20046;-95
2023/07/12 12:25:17;;;;;;;2.55;2.30;;;;;;;;;;5018754;28;20061;-94
2023/07/12 12:27:48;;;;;;;3.35;2.42;;;;;;;;;;5015140;28;20057;-94
2023/07/12 12:30:29;;;;;;;7.40;2.35;;;;;;;;;;5024516;28;20046;-94
2023/07/12 12:33:01;;;;;;;2.75;2.35;;;;;;;;;;5017540;28;20503;-94
2023/07/12 12:35:29;;;;;;;4.60;2.17;;;;;;;;;;5001641;28;20053;-94
2023/07/12 12:38:03;;;;;;;4.72;2.05;;;;;;;;;;5015870;28;20050;-93
2023/07/12 12:40:35;;;;;;;2.78;2.08;;;;;;;;;;5016471;28;20046;-93
2023/07/12 12:43:05;;;;;;;4.75;2.22;;;;;;;;;;5015494;28;20050;-94
2023/07/12 12:45:33;;;;;;;3.95;2.65;;;;;;;;;;5015433;28;20419;-93
2023/07/12 12:48:04;;;;;;;2.97;1.88;;;;;;;;;;5016249;28;20061;-93
2023/07/12 12:50:33;;;;;;;3.40;2.17;;;;;;;;;;4998426;28;20049;-94
2023/07/12 12:53:04;;;;;;;6.45;3.13;;;;;;;;;;5013622;28;20521;-92
2023/07/12 12:55:33;;;;;;;3.88;2.33;;;;;;;;;;5014969;28;20057;-94
2023/07/12 12:58:01;;;;;;;2.58;2.35;;;;;;;;;;5014464;28;20054;-92
2023/07/12 13:00:30;;;;;;;2.80;1.83;;;;;;;;;;5020785;28;20061;-94
2023/07/12 13:03:00;;;;;;;3.75;2.20;;;;;;;;;;5031571;28;20510;-93
2023/07/12 13:05:29;;;;;;;3.22;1.95;;;;;;;;;;5009611;28;20053;-93
2023/07/12 13:07:57;;;;;;;3.92;2.28;;;;;;;;;;5013567;28;20057;-94
2023/07/12 13:10:24;;;;;;;5.32;2.25;;;;;;;;;;4998772;28;20046;-93
2023/07/12 13:12:52;;;;;;;3.53;2.30;;;;;;;;;;5015351;28;20049;-93
2023/07/12 13:15:21;;;;;;;2.28;1.98;;;;;;;;;;4998684;28;20049;-94
2023/07/12 13:17:52;;;;;;;2.15;1.80;;;;;;;;;;5016774;28;20034;-93
2023/07/12 13:20:30;;;;;;;2.55;1.85;;;;;;;;;;5013979;28;20054;-93
2023/07/12 13:22:58;;;;;;;2.03;1.80;;;;;;;;;;5013003;28;20053;-95
2023/07/12 13:25:26;;;;;;;3.05;1.48;;;;;;;;;;5018974;28;20054;-93
2023/07/12 13:27:56;;;;;;;2.42;1.60;;;;;;;;;;5018843;28;20049;-92
2023/07/12 13:30:28;;;;;;;2.58;1.75;;;;;;;;;;5017877;28;20054;-93
2023/07/12 13:32:55;;;;;;;2.95;2.03;;;;;;;;;;4999759;28;20050;-93
2023/07/12 13:35:24;;;;;;;3.38;2.05;;;;;;;;;;5034779;28;20408;-93
2023/07/12 13:37:57;;;;;;;3.47;1.88;;;;;;;;;;5017589;28;20041;-93
2023/07/12 13:40:25;;;;;;;4.82;1.48;;;;;;;;;;5034477;28;20063;-94
2023/07/12 13:42:55;;;;;;;2.80;1.95;;;;;;;;;;4999895;28;20058;-93
2023/07/12 13:45:27;;;;;;;3.25;1.77;;;;;;;;;;5012583;28;20054;-93
2023/07/12 13:47:55;;;;;;;6.78;2.13;;;;;;;;;;5024848;28;20053;-94
2023/07/12 13:50:24;;;;;;;2.55;1.58;;;;;;;;;;5014136;28;20045;-93
2023/07/12 13:52:53;;;;;;;5.28;1.98;;;;;;;;;;5014321;28;20042;-94
2023/07/12 13:55:22;;;;;;;1.85;1.58;;;;;;;;;;5000288;28;20057;-93
2023/07/12 13:57:49;;;;;;;5.43;1.50;;;;;;;;;;5016486;28;20049;-93
2023/07/12 14:00:21;;;;;;;3.22;2.22;;;;;;;;;;4997573;28;20054;-94
2023/07/12 14:02:52;;;;;;;2.65;1.52;;;;;;;;;;5013992;28;20050;-93
2023/07/12 14:05:21;;;;;;;3.35;1.83;;;;;;;;;;4997053;28;20081;-95
2023/07/12 14:07:51;;;;;;;4.72;2.30;;;;;;;;;;4997993;28;20057;-93
2023/07/12 14:10:21;;;;;;;2.17;1.70;;;;;;;;;;5014253;28;20049;-95
2023/07/12 14:13:20;;;;;;;3.70;1.60;;;;;;;;;;4997838;28;20050;-94
2023/07/12 14:15:52;;;;;;;3.90;1.77;;;;;;;;;;5028298;28;20062;-93
2023/07/12 14:18:20;;;;;;;2.97;1.65;;;;;;;;;;5013382;28;20064;-94
2023/07/12 14:20:49;;;;;;;4.95;1.50;;;;;;;;;;5016179;28;20533;-93
2023/07/12 14:23:21;;;;;;;3.03;1.90;;;;;;;;;;4998766;28;20060;-93
2023/07/12 14:25:50;;;;;;;2.03;1.65;;;;;;;;;;5003366;28;20050;-94
2023/07/12 14:28:20;;;;;;;1.98;1.67;;;;;;;;;;5015092;28;20057;-93
2023/07/12 14:30:49;;;;;;;;;;;;;;;;;;5017282;28;20057;-93
2023/07/12 14:33:30;;;;;;;5.03;2.10;;;;;;;;;;5017372;28;19922;-92
2023/07/12 14:35:58;;;;;;;2.30;1.73;;;;;;;;;;5015947;28;20212;-91
2023/07/12 14:38:26;;;;;;;2.80;1.83;;;;;;;;;;5013529;28;20052;-91
2023/07/12 14:40:55;;;;;;;3.10;1.70;;;;;;;;;;5018296;28;20056;-90
2023/07/12 14:43:25;;;;;;;2.53;1.75;;;;;;;;;;5020526;28;20054;-91
2023/07/12 14:45:54;;;;;;;2.83;1.50;;;;;;;;;;5014577;28;20057;-91
2023/07/12 14:48:21;;;;;;;2.53;1.27;;;;;;;;;;5018321;28;20054;-92
2023/07/12 14:50:54;;;;;;;3.42;1.90;;;;;;;;;;4998509;28;20045;-92
2023/07/12 14:53:22;;;;;;;1.80;1.42;;;;;;;;;;4996395;28;20081;-91
2023/07/12 14:55:49;;;;;;;2.95;1.75;;;;;;;;;;5009427;28;20044;-90
2023/07/12 14:58:21;;;;;;;1.95;1.70;;;;;;;;;;5033148;28;20060;-90
2023/07/12 15:00:49;;;;;;;2.83;1.25;;;;;;;;;;5029020;28;20418;-91
2023/07/12 15:03:21;;;;;;;3.42;1.05;;;;;;;;;;5033163;28;20050;-90
2023/07/12 15:05:49;;;;;;;2.75;1.80;;;;;;;;;;5016287;28;20054;-91
2023/07/12 15:08:31;;;;;;;3.78;1.85;;;;;;;;;;4996697;28;20057;-92
2023/07/12 15:11:01;;;;;;;2.10;1.27;;;;;;;;;;5015638;28;20045;-91
2023/07/12 15:13:31;;;;;;;2.97;1.50;;;;;;;;;;5019439;28;20511;-94
2023/07/12 15:15:58;;;;;;;3.08;1.48;;;;;;;;;;5005425;28;20056;-92
2023/07/12 15:18:27;;;;;;;1.75;1.40;;;;;;;;;;5002696;28;20081;-93
2023/07/12 15:20:59;;;;;;;4.97;1.65;;;;;;;;;;5018519;28;20516;-92
2023/07/12 15:23:33;;;;;;;2.28;1.58;;;;;;;;;;5016826;28;20065;-92
2023/07/12 15:26:01;;;;;;;2.97;1.70;;;;;;;;;;5015054;28;20368;-93
2023/07/12 15:28:38;;;;;;;2.88;1.80;;;;;;;;;;5017617;28;20057;-92
2023/07/12 15:31:16;;;;;;;3.55;1.20;;;;;;;;;;4998220;28;20053;-92
2023/07/12 15:33:48;;;;;;;1.25;0.98;;;;;;;;;;5016297;28;20038;-92
2023/07/12 15:36:22;;;;;;;2.28;1.67;;;;;;;;;;5001134;28;20065;-93
2023/07/12 15:38:53;;;;;;;3.47;1.40;;;;;;;;;;5015428;28;20046;-93
2023/07/12 15:41:21;;;;;;;1.60;1.10;;;;;;;;;;5012442;28;20426;-92
2023/07/12 16:01:34;;;;;;;4.47;1.60;;;;;;;;;;5008166;28;20037;-92
2023/07/12 16:04:53;;;;;;;2.05;1.40;;;;;;;;;;5003315;28;20057;-91
2023/07/12 16:07:20;;;;;;;1.77;1.15;;;;;;;;;;5007867;28;20054;-92